Presque Isle, MI (49777)

5:54 AM EDT on July 28, 2015 (GMT -0400)
Lotus Lake | | Change Station
CLOSE
Current Station
Personal Weather Station
Location: Presque Isle, MI
Elevation: 617 ft
Nearby Weather Stations

Elev 617 ft 45.30 °N, 83.48 °W | Updated 10 minutes ago

Clear
Clear
66.9 °F
Feels Like 66.9 °F
N
0.0
Wind Variable Wind from NW

Today
High -- | Low -- °F
--% Chance of Precip.
Yesterday
High -- | Low -- °F
Precip. -- in
6:13 AM 9:06 PM
Waxing Gibbous, 88% visible
Pressure 30.04 in
Visibility 10.0 miles
Clouds Clear
Dew Point 64 °F
Humidity 90%
Rainfall 0.00 in
Snow Depth Not available.
UV 0 out of 12
Pollen 5.90 out of 12
Air Quality Not available.
Flu Activity Not available.
METAR KPZQ 280934Z AUTO 00000KT 10SM CLR 18/16 A3004 RMK AO2 T01820159

More Conditions Fewer Conditions

Pressure 30.04 in
Visibility 10.0 miles
Clouds Clear
Dew Point 64 °F
Humidity 90%
Rainfall 0.00 in
Snow Depth Not available.
UV 0 out of 12
Pollen 5.90 out of 12
Air Quality Not available.
Flu Activity Not available.
METAR KPZQ 280934Z AUTO 00000KT 10SM CLR 18/16 A3004 RMK AO2 T01820159

More Conditions Fewer Conditions

Nowcast | as of 4:00 am EDT on July 28, 2015

At 5 am...clear. Temperature 66. Southwest winds 5 mph. At 7 am...clear. Temperature 65. Light winds. At 9 am...clear. Temperature 74. Light winds. At 11 am...mostly clear. Temperature 82. Light winds.

×

10-Day Weather Forecast

×

Almanac

Astronomy

Jul. 28, 2015 Rise Set
Actual Time
Civil Twilight
Nautical Twilight
Astronomical Twilight
Moon
Length of Visible Light
Length of Day
Tomorrow will be .
, % of the Moon is Illuminated

Today's Extremes

State Highs State Lows

Community

WunderPhotos

Upload Photos

1,841,800 photos uploaded!

WunderBlogs® & News

Nearby

Air Quality

  Air Quality AQ Index Pollutant
Not available.

Snow Depth

Station Depth Elevation

Earthquake Activity

City Distance Mag. Time & Date
Minimum magnitude displayed is 2.5.

Coastal Water Temperatures

Place Temperature

Stations

Nearby Weather Stations

Station Location Temp. Windchill Dew Point Humidity Wind Precip. Elev Updated Type